Time;durP1;ratioP1;P1;durP2;ratioP2;P2;SDS_P1;SDS_P2;PMS_P1;PMS_P2;Temp;Humidity;BMP_temperature;BMP_pressure;BME280_temperature;BME280_humidity;BME280_pressure;Samples;Min_cycle;Max_cycle;Signal;HPM_P1;HPM_P2
2023/01/02 00:00:21;;;;;;;3.13;1.53;;;;;;;;;;4965869;28;20245;-78
2023/01/02 00:02:48;;;;;;;1.73;1.63;;;;;;;;;;4955781;28;20228;-76
2023/01/02 00:05:15;;;;;;;1.80;1.60;;;;;;;;;;4965073;28;20749;-76
2023/01/02 00:07:43;;;;;;;1.30;1.30;;;;;;;;;;4963849;28;20232;-75
2023/01/02 00:10:10;;;;;;;1.97;1.60;;;;;;;;;;4969227;28;20307;-76
2023/01/02 00:12:38;;;;;;;2.57;1.53;;;;;;;;;;4956784;28;20960;-76
2023/01/02 00:15:05;;;;;;;1.73;1.63;;;;;;;;;;4970950;28;20239;-75
2023/01/02 00:17:33;;;;;;;1.80;1.70;;;;;;;;;;4968346;28;20271;-76
2023/01/02 00:20:00;;;;;;;1.97;1.77;;;;;;;;;;4966572;28;20211;-76
2023/01/02 00:22:30;;;;;;;3.57;1.83;;;;;;;;;;4964913;28;20351;-76
2023/01/02 00:24:57;;;;;;;2.50;1.50;;;;;;;;;;4967653;28;20201;-77
2023/01/02 00:27:25;;;;;;;2.67;1.80;;;;;;;;;;4973966;28;20239;-75
2023/01/02 00:29:52;;;;;;;2.50;2.07;;;;;;;;;;4966881;28;20250;-76
2023/01/02 00:32:19;;;;;;;3.07;1.70;;;;;;;;;;4970186;28;20231;-76
2023/01/02 00:34:46;;;;;;;2.80;1.90;;;;;;;;;;4978625;28;20219;-75
2023/01/02 00:37:13;;;;;;;2.50;1.50;;;;;;;;;;4964606;28;20231;-77
2023/01/02 00:39:41;;;;;;;1.70;1.60;;;;;;;;;;4960362;28;20219;-77
2023/01/02 00:42:08;;;;;;;2.87;1.47;;;;;;;;;;4960847;28;20243;-78
2023/01/02 00:44:35;;;;;;;1.60;1.50;;;;;;;;;;4971460;28;21533;-78
2023/01/02 00:47:02;;;;;;;1.60;1.50;;;;;;;;;;4966349;28;20311;-78
2023/01/02 00:49:29;;;;;;;2.00;1.80;;;;;;;;;;4971481;28;20205;-76
2023/01/02 00:51:56;;;;;;;1.87;1.60;;;;;;;;;;4965575;28;20232;-76
2023/01/02 00:54:23;;;;;;;3.60;1.60;;;;;;;;;;4970766;28;20217;-75
2023/01/02 00:56:51;;;;;;;2.00;1.63;;;;;;;;;;4978274;28;20224;-76
2023/01/02 00:59:18;;;;;;;1.57;1.43;;;;;;;;;;4965693;28;20295;-78
2023/01/02 01:01:45;;;;;;;1.73;1.50;;;;;;;;;;4965386;28;20284;-79
2023/01/02 01:04:13;;;;;;;1.30;1.20;;;;;;;;;;4973584;28;20341;-76
2023/01/02 01:06:41;;;;;;;1.77;1.23;;;;;;;;;;4974049;28;20283;-78
2023/01/02 01:09:08;;;;;;;2.13;1.70;;;;;;;;;;4971514;28;20232;-78
2023/01/02 01:11:35;;;;;;;2.10;1.60;;;;;;;;;;4968211;28;20211;-78
2023/01/02 01:14:03;;;;;;;2.33;1.40;;;;;;;;;;4970628;28;20658;-78
2023/01/02 01:16:30;;;;;;;1.83;1.70;;;;;;;;;;4971790;28;20256;-78
2023/01/02 01:18:57;;;;;;;1.60;1.50;;;;;;;;;;4966824;28;20201;-77
2023/01/02 01:21:24;;;;;;;3.40;1.40;;;;;;;;;;4972818;28;20205;-77
2023/01/02 01:23:53;;;;;;;3.27;1.40;;;;;;;;;;4960815;28;20748;-77
2023/01/02 01:26:21;;;;;;;2.57;1.40;;;;;;;;;;4962558;28;20251;-78
2023/01/02 01:28:48;;;;;;;3.20;1.40;;;;;;;;;;4949164;28;20212;-79
2023/01/02 01:31:16;;;;;;;3.03;1.30;;;;;;;;;;4966629;28;24037;-76
2023/01/02 01:33:43;;;;;;;2.43;1.40;;;;;;;;;;4968584;28;20205;-79
2023/01/02 01:36:13;;;;;;;3.43;1.50;;;;;;;;;;4970123;28;20227;-78
2023/01/02 01:38:41;;;;;;;3.10;1.53;;;;;;;;;;4960150;28;20219;-76
2023/01/02 01:41:08;;;;;;;3.07;1.40;;;;;;;;;;4958712;28;20208;-77
2023/01/02 01:43:40;;;;;;;3.23;1.60;;;;;;;;;;4969215;28;20236;-76
2023/01/02 01:46:27;;;;;;;3.77;1.63;;;;;;;;;;4967150;28;20205;-77
2023/01/02 01:49:08;;;;;;;2.30;1.40;;;;;;;;;;4957189;28;20200;-78
2023/01/02 01:51:36;;;;;;;1.40;1.30;;;;;;;;;;4964507;28;20215;-76
2023/01/02 01:54:09;;;;;;;3.47;1.70;;;;;;;;;;4963900;28;20204;-77
2023/01/02 01:56:38;;;;;;;2.50;1.70;;;;;;;;;;4966174;28;20228;-78
2023/01/02 01:59:07;;;;;;;2.30;1.67;;;;;;;;;;4967254;28;20236;-78
2023/01/02 02:01:34;;;;;;;1.93;1.40;;;;;;;;;;4966444;28;20588;-77
2023/01/02 02:04:02;;;;;;;2.90;1.60;;;;;;;;;;4959226;28;20227;-79
2023/01/02 02:06:29;;;;;;;2.27;1.33;;;;;;;;;;4969128;28;20334;-75
2023/01/02 02:08:59;;;;;;;3.10;1.80;;;;;;;;;;4965868;28;20237;-79
2023/01/02 02:11:26;;;;;;;2.33;1.63;;;;;;;;;;4962963;28;20208;-76
2023/01/02 02:13:58;;;;;;;3.07;1.50;;;;;;;;;;4974143;28;20216;-78
2023/01/02 02:16:41;;;;;;;1.50;1.20;;;;;;;;;;4976259;28;20242;-77
2023/01/02 02:19:20;;;;;;;5.33;1.70;;;;;;;;;;4971445;28;20208;-78
2023/01/02 02:21:47;;;;;;;1.90;1.50;;;;;;;;;;4960973;28;20226;-78
2023/01/02 02:24:35;;;;;;;1.87;1.30;;;;;;;;;;4962977;28;20204;-77
2023/01/02 02:27:22;;;;;;;2.63;1.60;;;;;;;;;;4964816;28;20359;-77
2023/01/02 02:29:52;;;;;;;1.70;1.60;;;;;;;;;;4971697;28;20196;-77
2023/01/02 02:32:34;;;;;;;2.57;1.63;;;;;;;;;;4954131;28;20220;-76
2023/01/02 02:35:14;;;;;;;5.83;1.57;;;;;;;;;;4944380;28;20218;-77
2023/01/02 02:38:08;;;;;;;5.00;1.70;;;;;;;;;;4960604;28;20319;-76
2023/01/02 02:40:35;;;;;;;3.37;1.70;;;;;;;;;;4925919;28;20676;-76
2023/01/02 02:43:14;;;;;;;1.80;1.33;;;;;;;;;;4970614;28;20239;-77
2023/01/02 02:45:50;;;;;;;1.60;1.50;;;;;;;;;;4967018;28;20708;-77
2023/01/02 02:48:41;;;;;;;1.43;1.30;;;;;;;;;;4965879;28;20359;-79
2023/01/02 02:51:24;;;;;;;2.57;1.60;;;;;;;;;;4959183;28;20219;-77
2023/01/02 02:53:54;;;;;;;2.17;1.33;;;;;;;;;;4965595;28;21511;-78
2023/01/02 02:56:23;;;;;;;6.03;1.57;;;;;;;;;;4965292;28;20235;-78
2023/01/02 02:58:50;;;;;;;3.20;1.60;;;;;;;;;;4957469;28;20276;-78
2023/01/02 03:01:18;;;;;;;2.30;1.63;;;;;;;;;;4967100;28;20212;-79
2023/01/02 03:03:46;;;;;;;2.30;1.90;;;;;;;;;;4955753;28;20228;-77
2023/01/02 03:06:13;;;;;;;3.67;1.63;;;;;;;;;;4963234;28;20243;-77
2023/01/02 03:08:43;;;;;;;2.50;1.50;;;;;;;;;;4966085;28;20204;-79
2023/01/02 03:11:10;;;;;;;2.27;1.60;;;;;;;;;;4970494;28;20216;-77
2023/01/02 03:13:39;;;;;;;2.87;1.70;;;;;;;;;;4973818;28;20282;-78
2023/01/02 03:16:11;;;;;;;2.57;1.60;;;;;;;;;;4979304;28;20208;-78
2023/01/02 03:18:59;;;;;;;4.93;1.80;;;;;;;;;;4962738;28;20204;-75
2023/01/02 03:21:41;;;;;;;1.63;1.40;;;;;;;;;;4949937;28;20647;-76
2023/01/02 03:24:13;;;;;;;2.03;1.43;;;;;;;;;;4972114;28;20259;-74
2023/01/02 03:26:43;;;;;;;4.47;1.50;;;;;;;;;;4970875;28;20231;-77
2023/01/02 03:29:15;;;;;;;2.00;1.80;;;;;;;;;;4968471;28;20919;-78
2023/01/02 03:31:43;;;;;;;3.53;1.70;;;;;;;;;;4964225;28;20285;-78
2023/01/02 03:34:13;;;;;;;2.53;1.83;;;;;;;;;;4968044;28;20313;-78
2023/01/02 03:36:42;;;;;;;3.57;1.80;;;;;;;;;;4976087;28;20224;-78
2023/01/02 03:39:14;;;;;;;1.90;1.30;;;;;;;;;;4974200;28;20208;-76
2023/01/02 03:41:50;;;;;;;2.10;1.30;;;;;;;;;;4974064;28;20201;-76
2023/01/02 03:44:18;;;;;;;3.40;1.50;;;;;;;;;;4974637;28;20262;-78
2023/01/02 03:46:59;;;;;;;1.90;1.60;;;;;;;;;;4969010;28;20819;-78
2023/01/02 03:49:30;;;;;;;2.13;1.40;;;;;;;;;;4974904;28;20214;-78
2023/01/02 03:51:58;;;;;;;3.87;1.73;;;;;;;;;;4968903;28;20220;-78
2023/01/02 03:54:25;;;;;;;2.73;1.87;;;;;;;;;;4963772;28;20214;-77
2023/01/02 03:56:59;;;;;;;3.50;1.50;;;;;;;;;;4968029;28;20233;-78
2023/01/02 03:59:29;;;;;;;2.30;1.57;;;;;;;;;;4971696;28;20220;-76
2023/01/02 04:01:56;;;;;;;3.13;1.70;;;;;;;;;;4969429;28;20208;-77
2023/01/02 04:04:31;;;;;;;2.37;1.70;;;;;;;;;;4969969;28;20267;-79
2023/01/02 04:07:00;;;;;;;3.47;1.50;;;;;;;;;;4962812;28;20610;-77
2023/01/02 04:09:29;;;;;;;2.97;1.60;;;;;;;;;;4977015;28;21358;-77
2023/01/02 04:11:59;;;;;;;1.87;1.73;;;;;;;;;;4973578;28;20220;-79
2023/01/02 04:14:29;;;;;;;3.57;1.87;;;;;;;;;;4968243;28;20208;-78
2023/01/02 04:16:59;;;;;;;1.93;1.67;;;;;;;;;;4973024;28;20236;-78
2023/01/02 04:19:28;;;;;;;2.23;1.40;;;;;;;;;;4968360;28;20298;-78
2023/01/02 04:21:57;;;;;;;3.27;1.50;;;;;;;;;;4967299;28;20212;-78
2023/01/02 04:24:30;;;;;;;3.40;1.67;;;;;;;;;;4968474;28;20228;-79
2023/01/02 04:27:00;;;;;;;4.23;1.80;;;;;;;;;;4970110;28;20224;-78
2023/01/02 04:29:27;;;;;;;3.30;1.80;;;;;;;;;;4967221;28;20312;-77
2023/01/02 04:32:03;;;;;;;1.53;1.50;;;;;;;;;;4962408;28;20208;-77
2023/01/02 04:34:32;;;;;;;3.40;1.67;;;;;;;;;;4976836;28;20208;-78
2023/01/02 04:37:00;;;;;;;3.30;2.10;;;;;;;;;;4969978;28;20224;-79
2023/01/02 04:39:28;;;;;;;3.97;1.83;;;;;;;;;;4974501;28;20218;-79
2023/01/02 04:41:55;;;;;;;2.13;1.60;;;;;;;;;;4973506;28;20212;-77
2023/01/02 04:44:22;;;;;;;2.80;1.40;;;;;;;;;;4969851;28;20713;-76
2023/01/02 04:46:50;;;;;;;1.93;1.60;;;;;;;;;;4972594;28;21003;-76
2023/01/02 04:49:17;;;;;;;2.53;1.70;;;;;;;;;;4981390;28;20210;-77
2023/01/02 04:51:44;;;;;;;2.07;1.40;;;;;;;;;;4969732;28;20199;-77
2023/01/02 04:54:11;;;;;;;3.67;1.80;;;;;;;;;;4979137;28;20219;-79
2023/01/02 04:56:39;;;;;;;3.83;1.43;;;;;;;;;;4977396;28;20839;-78
2023/01/02 04:59:06;;;;;;;3.07;1.67;;;;;;;;;;4965841;28;20734;-79
2023/01/02 05:01:33;;;;;;;2.33;1.70;;;;;;;;;;4965936;28;20232;-76
2023/01/02 05:04:00;;;;;;;1.67;1.57;;;;;;;;;;4975911;28;20708;-78
2023/01/02 05:06:28;;;;;;;1.60;1.50;;;;;;;;;;4975886;28;20235;-79
2023/01/02 05:08:55;;;;;;;2.63;1.70;;;;;;;;;;4960422;28;20288;-78
2023/01/02 05:11:22;;;;;;;2.83;2.20;;;;;;;;;;4974274;28;20254;-78
2023/01/02 05:13:49;;;;;;;6.30;2.40;;;;;;;;;;4978512;28;20215;-78
2023/01/02 05:16:18;;;;;;;3.57;1.60;;;;;;;;;;4968034;28;20807;-78
2023/01/02 05:18:45;;;;;;;2.63;1.67;;;;;;;;;;4971969;28;20197;-78
2023/01/02 05:24:00;;;;;;;2.10;1.60;;;;;;;;;;4959498;28;20239;-79
2023/01/02 05:26:31;;;;;;;2.90;2.10;;;;;;;;;;4969024;28;20235;-76
2023/01/02 05:28:59;;;;;;;4.17;1.70;;;;;;;;;;4960852;28;20220;-79
2023/01/02 05:31:27;;;;;;;3.13;1.70;;;;;;;;;;4985754;28;20212;-77
2023/01/02 05:33:55;;;;;;;2.77;1.83;;;;;;;;;;4978332;28;20346;-76
2023/01/02 05:36:23;;;;;;;4.53;2.13;;;;;;;;;;4968868;28;20228;-75
2023/01/02 05:38:51;;;;;;;3.70;1.80;;;;;;;;;;4972656;28;20223;-77
2023/01/02 05:41:19;;;;;;;3.23;1.63;;;;;;;;;;4971591;28;20211;-79
2023/01/02 05:43:46;;;;;;;2.73;1.70;;;;;;;;;;4968338;28;20224;-77
2023/01/02 05:46:14;;;;;;;2.63;1.87;;;;;;;;;;4967104;28;20208;-78
2023/01/02 05:48:42;;;;;;;2.37;1.70;;;;;;;;;;4978068;28;20228;-77
2023/01/02 05:51:11;;;;;;;4.83;1.90;;;;;;;;;;4968486;28;20205;-77
2023/01/02 05:53:38;;;;;;;3.23;2.00;;;;;;;;;;4966153;28;20335;-79
2023/01/02 05:56:12;;;;;;;3.17;1.80;;;;;;;;;;4972077;28;20201;-78
2023/01/02 05:58:41;;;;;;;2.77;1.70;;;;;;;;;;4972153;28;20302;-77
2023/01/02 06:01:12;;;;;;;3.20;1.70;;;;;;;;;;4959118;28;20205;-76
2023/01/02 06:03:40;;;;;;;1.93;1.60;;;;;;;;;;4963032;28;20220;-75
2023/01/02 06:06:08;;;;;;;3.87;1.90;;;;;;;;;;4964736;28;20307;-77
2023/01/02 06:08:36;;;;;;;1.77;1.60;;;;;;;;;;4971489;28;20270;-77
2023/01/02 06:11:04;;;;;;;4.40;1.70;;;;;;;;;;4970652;28;20216;-77
2023/01/02 06:13:32;;;;;;;2.63;1.67;;;;;;;;;;4971834;28;20212;-76
2023/01/02 06:16:00;;;;;;;4.10;1.90;;;;;;;;;;4981004;28;20212;-77
2023/01/02 06:18:28;;;;;;;4.20;1.90;;;;;;;;;;4976361;28;20252;-78
2023/01/02 06:21:02;;;;;;;2.10;1.90;;;;;;;;;;4972477;28;20220;-76
2023/01/02 06:23:29;;;;;;;3.33;1.70;;;;;;;;;;4966785;28;20219;-79
2023/01/02 06:26:01;;;;;;;5.00;1.77;;;;;;;;;;4974006;28;20197;-79
2023/01/02 06:28:29;;;;;;;4.07;1.67;;;;;;;;;;4980090;28;20221;-77
2023/01/02 06:31:00;;;;;;;1.73;1.50;;;;;;;;;;4979957;28;20684;-76
2023/01/02 06:33:28;;;;;;;3.60;1.63;;;;;;;;;;4982358;28;20219;-77
2023/01/02 06:35:58;;;;;;;2.70;1.77;;;;;;;;;;4986375;28;20563;-77
2023/01/02 06:38:26;;;;;;;4.77;1.80;;;;;;;;;;4984789;28;20248;-77
2023/01/02 06:40:57;;;;;;;4.30;1.83;;;;;;;;;;4979893;28;20718;-75
2023/01/02 06:43:24;;;;;;;5.87;1.77;;;;;;;;;;4974159;28;20243;-76
2023/01/02 06:45:52;;;;;;;3.40;1.67;;;;;;;;;;4975345;28;20204;-77
2023/01/02 06:48:19;;;;;;;3.87;1.70;;;;;;;;;;4975624;28;20248;-76
2023/01/02 06:50:46;;;;;;;4.67;1.90;;;;;;;;;;4975207;28;20208;-78
2023/01/02 06:53:14;;;;;;;1.60;1.50;;;;;;;;;;4972630;28;20366;-76
2023/01/02 06:55:50;;;;;;;1.70;1.50;;;;;;;;;;4970702;28;20300;-77
2023/01/02 06:58:17;;;;;;;2.50;1.67;;;;;;;;;;4974565;28;20227;-76
2023/01/02 07:00:46;;;;;;;2.63;1.93;;;;;;;;;;4967771;28;20196;-77
2023/01/02 07:03:13;;;;;;;3.20;1.63;;;;;;;;;;4970758;28;20200;-78
2023/01/02 07:05:40;;;;;;;7.03;1.93;;;;;;;;;;4974831;28;20709;-77
2023/01/02 07:08:08;;;;;;;1.87;1.43;;;;;;;;;;4968274;28;20234;-75
2023/01/02 07:10:36;;;;;;;3.10;1.70;;;;;;;;;;4966944;28;20216;-77
2023/01/02 07:13:03;;;;;;;3.83;1.50;;;;;;;;;;4966826;28;20209;-76
2023/01/02 07:15:32;;;;;;;3.47;2.00;;;;;;;;;;4975145;28;20585;-77
2023/01/02 07:17:59;;;;;;;4.80;2.37;;;;;;;;;;4968401;28;20224;-78
2023/01/02 07:20:26;;;;;;;3.50;1.60;;;;;;;;;;4967786;28;20235;-79
2023/01/02 07:22:54;;;;;;;2.57;1.60;;;;;;;;;;4971290;28;20204;-77
2023/01/02 07:25:21;;;;;;;2.37;1.80;;;;;;;;;;4958731;28;21903;-77
2023/01/02 07:27:48;;;;;;;2.57;1.50;;;;;;;;;;4961285;28;20311;-77
2023/01/02 07:30:15;;;;;;;6.13;1.83;;;;;;;;;;4963234;28;20208;-76
2023/01/02 07:32:43;;;;;;;3.73;1.60;;;;;;;;;;4963793;28;20209;-77
2023/01/02 07:35:10;;;;;;;2.67;1.70;;;;;;;;;;4965028;28;20859;-76
2023/01/02 07:37:37;;;;;;;1.80;1.67;;;;;;;;;;4974271;28;20232;-77
2023/01/02 07:40:05;;;;;;;2.20;1.70;;;;;;;;;;4978024;28;20251;-78
2023/01/02 07:42:32;;;;;;;4.10;1.77;;;;;;;;;;4972320;28;20212;-76
2023/01/02 07:44:59;;;;;;;2.03;1.50;;;;;;;;;;4981544;28;20659;-77
2023/01/02 07:47:27;;;;;;;3.20;1.63;;;;;;;;;;4978046;28;20413;-79
2023/01/02 07:49:54;;;;;;;5.10;1.97;;;;;;;;;;4976640;28;20211;-78
2023/01/02 07:52:21;;;;;;;5.27;1.70;;;;;;;;;;4977965;28;20864;-76
2023/01/02 07:54:48;;;;;;;3.63;1.90;;;;;;;;;;4981636;28;20204;-79
2023/01/02 07:57:15;;;;;;;2.60;1.50;;;;;;;;;;4981721;28;21933;-78
2023/01/02 07:59:45;;;;;;;3.77;1.70;;;;;;;;;;4986245;28;20706;-80
2023/01/02 08:02:13;;;;;;;1.97;1.30;;;;;;;;;;4975426;28;20314;-77
2023/01/02 08:04:40;;;;;;;2.77;1.37;;;;;;;;;;4974258;28;20243;-77
2023/01/02 08:07:09;;;;;;;1.90;1.70;;;;;;;;;;4976450;28;20230;-77
2023/01/02 08:09:36;;;;;;;1.90;1.70;;;;;;;;;;4985445;28;20208;-78
2023/01/02 08:12:03;;;;;;;6.03;1.60;;;;;;;;;;4981917;28;21297;-78
2023/01/02 08:14:30;;;;;;;3.73;1.57;;;;;;;;;;4976171;28;20201;-78
2023/01/02 08:17:00;;;;;;;2.10;1.40;;;;;;;;;;4982672;28;20233;-76
2023/01/02 08:19:27;;;;;;;4.07;1.70;;;;;;;;;;4983717;28;20208;-78
2023/01/02 08:21:54;;;;;;;2.97;1.30;;;;;;;;;;4981505;28;20633;-75
2023/01/02 08:24:22;;;;;;;2.70;1.60;;;;;;;;;;4973689;28;20227;-77
2023/01/02 08:26:49;;;;;;;3.00;1.47;;;;;;;;;;4972177;28;20235;-77
2023/01/02 08:29:16;;;;;;;2.37;1.40;;;;;;;;;;4972838;28;20228;-78
2023/01/02 08:31:43;;;;;;;3.33;1.50;;;;;;;;;;4976876;28;20213;-77
2023/01/02 08:34:13;;;;;;;1.77;1.47;;;;;;;;;;4975245;28;20603;-78
2023/01/02 08:36:41;;;;;;;3.40;1.60;;;;;;;;;;4972504;28;20224;-78
2023/01/02 08:39:08;;;;;;;1.67;1.57;;;;;;;;;;4977890;28;20297;-76
2023/01/02 08:41:40;;;;;;;5.43;1.93;;;;;;;;;;4984611;28;20203;-78
2023/01/02 08:44:07;;;;;;;3.23;1.57;;;;;;;;;;4988785;28;20319;-78
2023/01/02 08:46:35;;;;;;;1.60;1.50;;;;;;;;;;4977486;28;20318;-79
2023/01/02 08:49:09;;;;;;;3.77;1.80;;;;;;;;;;4980743;28;20206;-79
2023/01/02 08:51:36;;;;;;;4.47;1.50;;;;;;;;;;4968481;28;20205;-78
2023/01/02 08:54:03;;;;;;;4.33;1.70;;;;;;;;;;4973427;28;20700;-78
2023/01/02 08:56:31;;;;;;;2.10;1.67;;;;;;;;;;4968518;28;20231;-80
2023/01/02 08:59:00;;;;;;;3.57;1.63;;;;;;;;;;4977178;28;20421;-77
2023/01/02 09:01:29;;;;;;;2.23;1.40;;;;;;;;;;4976878;28;20211;-79
2023/01/02 09:03:56;;;;;;;3.10;1.60;;;;;;;;;;4962048;28;20244;-76
2023/01/02 09:06:25;;;;;;;2.70;1.60;;;;;;;;;;4975253;28;20323;-78
2023/01/02 09:08:54;;;;;;;3.10;1.63;;;;;;;;;;4972423;28;20569;-77
2023/01/02 09:11:22;;;;;;;3.33;1.70;;;;;;;;;;4962789;28;20204;-77
2023/01/02 09:13:50;;;;;;;2.50;1.77;;;;;;;;;;4958926;28;20237;-80
2023/01/02 09:16:17;;;;;;;2.30;1.60;;;;;;;;;;4966514;28;20280;-75
2023/01/02 09:18:44;;;;;;;1.90;1.50;;;;;;;;;;4968493;28;20204;-79
2023/01/02 09:21:12;;;;;;;6.60;1.50;;;;;;;;;;4969693;28;20247;-79
2023/01/02 09:23:39;;;;;;;2.43;1.53;;;;;;;;;;4976418;28;20216;-81
2023/01/02 09:26:07;;;;;;;5.10;1.77;;;;;;;;;;4976525;28;20224;-79
2023/01/02 09:28:35;;;;;;;2.77;1.70;;;;;;;;;;4969997;28;22510;-78
2023/01/02 09:31:06;;;;;;;3.10;1.93;;;;;;;;;;4968342;28;20215;-76
2023/01/02 09:33:39;;;;;;;2.37;1.30;;;;;;;;;;4951480;28;20846;-78
2023/01/02 09:36:07;;;;;;;3.50;1.67;;;;;;;;;;4972876;28;20239;-77
2023/01/02 09:38:35;;;;;;;4.83;1.60;;;;;;;;;;4970024;28;20249;-78
2023/01/02 09:41:09;;;;;;;4.40;1.33;;;;;;;;;;4964604;28;20201;-78
2023/01/02 09:43:44;;;;;;;1.87;1.60;;;;;;;;;;4972436;28;20227;-78
2023/01/02 09:46:29;;;;;;;3.77;1.50;;;;;;;;;;4961065;28;20207;-79
2023/01/02 09:48:57;;;;;;;4.38;1.80;;;;;;;;;;4969285;28;20239;-78
2023/01/02 09:51:27;;;;;;;3.23;1.97;;;;;;;;;;4964301;28;20677;-79
2023/01/02 09:53:55;;;;;;;2.22;1.55;;;;;;;;;;4973530;28;20259;-78
2023/01/02 09:56:26;;;;;;;3.70;1.70;;;;;;;;;;4973232;28;20229;-78
2023/01/02 09:59:08;;;;;;;4.47;1.70;;;;;;;;;;4977588;28;20203;-80
2023/01/02 10:01:45;;;;;;;3.43;1.70;;;;;;;;;;4964089;28;20243;-80
2023/01/02 10:04:20;;;;;;;3.65;1.63;;;;;;;;;;4963497;28;20213;-81
2023/01/02 10:07:07;;;;;;;2.88;1.40;;;;;;;;;;4972601;28;20235;-78
2023/01/02 10:09:34;;;;;;;2.72;1.40;;;;;;;;;;4974393;28;20220;-80
2023/01/02 10:12:09;;;;;;;2.50;1.60;;;;;;;;;;4981405;28;20255;-80
2023/01/02 10:15:09;;;;;;;2.25;1.70;;;;;;;;;;4981321;28;20208;-77
2023/01/02 10:17:38;;;;;;;3.95;1.70;;;;;;;;;;4949030;28;20319;-76
2023/01/02 10:20:27;;;;;;;2.85;1.55;;;;;;;;;;4980480;28;20295;-79
2023/01/02 10:23:01;;;;;;;3.03;1.70;;;;;;;;;;4976333;28;20667;-77
2023/01/02 10:25:38;;;;;;;4.82;1.85;;;;;;;;;;4976068;28;20229;-79
2023/01/02 10:28:24;;;;;;;2.17;1.50;;;;;;;;;;4977195;28;20232;-78
2023/01/02 10:31:00;;;;;;;4.38;1.50;;;;;;;;;;4970167;28;20271;-79
2023/01/02 10:33:52;;;;;;;3.53;1.30;;;;;;;;;;4968661;28;20208;-79
2023/01/02 10:36:28;;;;;;;3.25;1.55;;;;;;;;;;4974739;28;20204;-74
2023/01/02 10:39:00;;;;;;;4.78;1.70;;;;;;;;;;4970943;28;20583;-75
2023/01/02 10:41:27;;;;;;;3.22;1.52;;;;;;;;;;4971736;28;20214;-80
2023/01/02 10:44:11;;;;;;;2.40;1.40;;;;;;;;;;4966368;28;20834;-77
2023/01/02 10:46:39;;;;;;;4.93;1.50;;;;;;;;;;4972505;28;20739;-76
2023/01/02 10:49:08;;;;;;;3.22;1.60;;;;;;;;;;4976657;28;20208;-78
2023/01/02 10:51:36;;;;;;;3.15;1.60;;;;;;;;;;4977709;28;20304;-75
2023/01/02 10:54:05;;;;;;;4.22;1.77;;;;;;;;;;4957707;28;20219;-78
2023/01/02 10:56:35;;;;;;;2.55;1.60;;;;;;;;;;4970742;28;20248;-79
2023/01/02 10:59:03;;;;;;;3.50;1.83;;;;;;;;;;4972464;28;20843;-77
2023/01/02 11:01:50;;;;;;;4.47;1.90;;;;;;;;;;4974725;28;20201;-77
2023/01/02 11:04:20;;;;;;;3.15;1.67;;;;;;;;;;4969860;28;20207;-77
2023/01/02 11:06:58;;;;;;;6.05;2.28;;;;;;;;;;4971290;28;20613;-79
2023/01/02 11:09:27;;;;;;;3.45;1.58;;;;;;;;;;4975841;28;20267;-79
2023/01/02 11:12:08;;;;;;;4.40;2.05;;;;;;;;;;4958649;28;20449;-79
2023/01/02 11:14:36;;;;;;;4.20;1.83;;;;;;;;;;4956514;28;20208;-77
2023/01/02 11:17:23;;;;;;;5.05;1.75;;;;;;;;;;4962679;28;20235;-80
2023/01/02 11:19:51;;;;;;;5.43;1.40;;;;;;;;;;4963351;28;20215;-77
2023/01/02 11:22:20;;;;;;;4.40;1.80;;;;;;;;;;4957586;28;20223;-78
2023/01/02 11:24:53;;;;;;;2.58;1.40;;;;;;;;;;4967614;28;20224;-79
2023/01/02 11:27:34;;;;;;;4.25;1.67;;;;;;;;;;4967949;28;20310;-77
2023/01/02 11:30:01;;;;;;;3.53;1.40;;;;;;;;;;4974793;28;20210;-76
2023/01/02 11:32:37;;;;;;;2.45;1.48;;;;;;;;;;4965185;28;20212;-78
2023/01/02 11:35:05;;;;;;;5.00;2.05;;;;;;;;;;4973553;28;20204;-80
2023/01/02 11:37:33;;;;;;;4.88;1.77;;;;;;;;;;4963233;28;20228;-79
2023/01/02 11:40:05;;;;;;;5.55;1.75;;;;;;;;;;4971095;28;21322;-78
2023/01/02 11:45:24;;;;;;;2.92;1.52;;;;;;;;;;4976759;28;20221;-79
2023/01/02 11:47:59;;;;;;;5.35;1.83;;;;;;;;;;4983884;28;20239;-80
2023/01/02 11:50:30;;;;;;;4.28;1.50;;;;;;;;;;4979016;28;20200;-77
2023/01/02 11:53:01;;;;;;;5.72;2.65;;;;;;;;;;4998783;28;20292;-79
2023/01/02 11:55:37;;;;;;;4.90;1.90;;;;;;;;;;4983193;28;20239;-78
2023/01/02 11:58:04;;;;;;;6.30;2.15;;;;;;;;;;4976621;28;20254;-78
2023/01/02 12:00:33;;;;;;;8.95;2.40;;;;;;;;;;4987437;28;20232;-77
2023/01/02 12:03:11;;;;;;;6.53;1.92;;;;;;;;;;4986991;28;20223;-80
2023/01/02 12:05:56;;;;;;;6.13;1.90;;;;;;;;;;4969978;28;20238;-77
2023/01/02 12:08:42;;;;;;;6.18;1.90;;;;;;;;;;4971627;28;20224;-79
2023/01/02 12:11:17;;;;;;;12.30;2.03;;;;;;;;;;4986892;28;20232;-79
2023/01/02 12:14:00;;;;;;;5.10;2.05;;;;;;;;;;4985212;28;20204;-77
2023/01/02 12:16:27;;;;;;;4.72;1.98;;;;;;;;;;4986602;28;20223;-78
2023/01/02 12:19:18;;;;;;;11.00;2.40;;;;;;;;;;4977576;28;20212;-79
2023/01/02 12:22:04;;;;;;;6.47;2.00;;;;;;;;;;4987527;28;20313;-78
2023/01/02 12:24:37;;;;;;;6.38;2.20;;;;;;;;;;4981319;28;20309;-78
2023/01/02 12:27:08;;;;;;;7.85;1.95;;;;;;;;;;4991289;28;20319;-76
2023/01/02 12:29:42;;;;;;;6.70;2.53;;;;;;;;;;4977410;28;20682;-76
2023/01/02 12:32:27;;;;;;;12.32;2.22;;;;;;;;;;4975560;28;20196;-78
2023/01/02 12:35:12;;;;;;;11.40;2.08;;;;;;;;;;4982994;28;20600;-77
2023/01/02 12:37:53;;;;;;;6.57;1.80;;;;;;;;;;4972831;28;20247;-78
2023/01/02 12:40:33;;;;;;;8.52;1.77;;;;;;;;;;4985960;28;20212;-77
2023/01/02 12:43:03;;;;;;;7.35;2.15;;;;;;;;;;4982883;28;20216;-79
2023/01/02 12:45:30;;;;;;;6.13;2.53;;;;;;;;;;4982229;28;20713;-80
2023/01/02 12:47:58;;;;;;;8.23;2.38;;;;;;;;;;4982629;28;20223;-80
2023/01/02 12:50:25;;;;;;;5.30;1.83;;;;;;;;;;4983218;28;20218;-75
2023/01/02 12:53:00;;;;;;;9.18;2.22;;;;;;;;;;4978306;28;20222;-78
2023/01/02 12:55:34;;;;;;;8.13;2.08;;;;;;;;;;4978992;28;20638;-79
2023/01/02 12:58:04;;;;;;;7.18;1.95;;;;;;;;;;4978393;28;20709;-78
2023/01/02 13:00:54;;;;;;;9.15;2.65;;;;;;;;;;4983058;28;20208;-78
2023/01/02 13:03:40;;;;;;;5.68;1.90;;;;;;;;;;4984066;28;20266;-78
2023/01/02 13:06:13;;;;;;;9.85;2.40;;;;;;;;;;4977321;28;20251;-79
2023/01/02 13:09:12;;;;;;;7.32;2.00;;;;;;;;;;4980085;28;20204;-79
2023/01/02 13:11:53;;;;;;;9.15;2.05;;;;;;;;;;4960177;28;20205;-77
2023/01/02 13:14:25;;;;;;;7.50;2.35;;;;;;;;;;4983142;28;20732;-77
2023/01/02 13:17:01;;;;;;;7.85;2.50;;;;;;;;;;4975081;28;20687;-77
2023/01/02 13:19:38;;;;;;;10.65;2.05;;;;;;;;;;4980463;28;20613;-77
2023/01/02 13:22:25;;;;;;;9.50;2.40;;;;;;;;;;4974548;28;20211;-78
2023/01/02 13:24:52;;;;;;;6.97;2.30;;;;;;;;;;4974552;28;20296;-77
2023/01/02 13:27:19;;;;;;;9.32;2.40;;;;;;;;;;4975731;28;20228;-79
2023/01/02 13:29:46;;;;;;;3.92;1.88;;;;;;;;;;4979012;28;20196;-79
2023/01/02 13:32:14;;;;;;;7.53;2.10;;;;;;;;;;4978048;28;20271;-79
2023/01/02 13:34:50;;;;;;;5.53;2.22;;;;;;;;;;4979711;28;20238;-78
2023/01/02 13:37:27;;;;;;;5.90;2.35;;;;;;;;;;4972343;28;20297;-78
2023/01/02 13:39:59;;;;;;;9.35;2.40;;;;;;;;;;4971027;28;20196;-80
2023/01/02 13:45:40;;;;;;;7.82;2.65;;;;;;;;;;4977974;28;20232;-78
2023/01/02 13:48:18;;;;;;;4.97;1.92;;;;;;;;;;4979578;28;20216;-77
2023/01/02 13:50:46;;;;;;;6.88;2.70;;;;;;;;;;4974622;28;20326;-78
2023/01/02 13:53:13;;;;;;;7.53;2.33;;;;;;;;;;4977975;28;20228;-80
2023/01/02 13:55:40;;;;;;;9.88;2.35;;;;;;;;;;4965940;28;20212;-78
2023/01/02 13:58:16;;;;;;;9.15;2.47;;;;;;;;;;4980631;28;20239;-78
2023/01/02 14:00:45;;;;;;;4.85;2.05;;;;;;;;;;4967678;28;20215;-80
2023/01/02 14:03:23;;;;;;;7.25;2.17;;;;;;;;;;4976009;28;20622;-78
2023/01/02 14:05:57;;;;;;;7.53;2.05;;;;;;;;;;4981769;28;20223;-80
2023/01/02 14:08:38;;;;;;;8.20;2.72;;;;;;;;;;4980087;28;20224;-80
2023/01/02 14:11:08;;;;;;;6.75;2.50;;;;;;;;;;4983317;28;20403;-80
2023/01/02 14:13:39;;;;;;;7.07;2.63;;;;;;;;;;4965695;28;20499;-78
2023/01/02 14:16:16;;;;;;;9.02;2.45;;;;;;;;;;4969977;28;20220;-80
2023/01/02 14:18:44;;;;;;;8.75;2.70;;;;;;;;;;4974457;28;20215;-76
2023/01/02 14:21:15;;;;;;;8.52;2.30;;;;;;;;;;4975118;28;20255;-78
2023/01/02 14:23:47;;;;;;;9.65;3.08;;;;;;;;;;4969797;28;20692;-78
2023/01/02 14:26:35;;;;;;;6.35;2.85;;;;;;;;;;4973023;28;20247;-78
2023/01/02 14:29:12;;;;;;;10.70;3.47;;;;;;;;;;4982450;28;20210;-80
2023/01/02 14:31:40;;;;;;;10.15;3.95;;;;;;;;;;4972401;28;20200;-79
2023/01/02 14:34:09;;;;;;;7.47;2.90;;;;;;;;;;4981234;28;20204;-77
2023/01/02 14:36:41;;;;;;;12.88;3.25;;;;;;;;;;4980011;28;20288;-77
2023/01/02 14:39:20;;;;;;;12.30;4.75;;;;;;;;;;4974202;28;20209;-78
2023/01/02 14:44:56;;;;;;;11.65;5.47;;;;;;;;;;4980382;28;20243;-80
2023/01/02 14:47:38;;;;;;;13.68;3.63;;;;;;;;;;4968379;28;20232;-79
2023/01/02 14:50:09;;;;;;;14.40;5.55;;;;;;;;;;4970073;28;20267;-76
2023/01/02 14:52:38;;;;;;;7.32;2.83;;;;;;;;;;4970712;28;20200;-77
2023/01/02 14:55:17;;;;;;;6.05;2.85;;;;;;;;;;4960832;28;20635;-78
2023/01/02 14:57:47;;;;;;;10.15;3.38;;;;;;;;;;4973844;28;20224;-79
2023/01/02 15:00:21;;;;;;;7.63;3.15;;;;;;;;;;4970341;28;20243;-79
2023/01/02 15:02:50;;;;;;;9.95;2.67;;;;;;;;;;4969786;28;20870;-79
2023/01/02 15:05:21;;;;;;;13.00;2.40;;;;;;;;;;4976758;28;20239;-80
2023/01/02 15:07:51;;;;;;;13.40;3.20;;;;;;;;;;4969128;28;20248;-80
2023/01/02 15:10:19;;;;;;;8.68;3.00;;;;;;;;;;4979890;28;20227;-79
2023/01/02 15:13:03;;;;;;;7.70;2.22;;;;;;;;;;4976791;28;20200;-79
2023/01/02 15:15:32;;;;;;;6.28;2.50;;;;;;;;;;4972851;28;20238;-77
2023/01/02 15:18:05;;;;;;;5.90;2.30;;;;;;;;;;4977341;28;20248;-82